Flight Track Log - Related Links

Times and Time Zones

All times are in EDT time to prevent confusion due to time zone crossing. See the CCA1346 flight status page for this flight to view local times or setup timezone preferences in your user account.

Time Position Orientation Groundspeed Altitude Reporting Facility
EDT Latitude Longitude Course Direction KTS MPH feet Rate Location/Type
Thu 10:33:00 AM 28.7957 112.4707 14° North  Level Estimated
Thu 10:34:00 AM 28.8944 112.5022 16° North  Level Estimated
Thu 10:35:00 AM 28.9930 112.5337 16° North  Level Estimated
Thu 10:36:00 AM 29.0917 112.5653 16° North  Level Estimated
Thu 10:37:00 AM 29.1904 112.5969 16° North  Level Estimated
Thu 10:38:00 AM 29.2890 112.6287 16° North  Level Estimated
Thu 10:39:00 AM 29.3876 112.6604 16° North  Level Estimated
Thu 10:40:00 AM 29.4863 112.6923 16° North  Level Estimated
Thu 10:41:00 AM 29.5849 112.7241 16° North  Level Estimated
Thu 10:42:00 AM 29.6835 112.7561 16° North  Level Estimated
Thu 10:43:00 AM 29.7821 112.7881 16° North  Level Estimated
Thu 10:44:00 AM 29.8807 112.8202 16° North  Level Estimated
Thu 10:45:00 AM 29.9793 112.8523 16° North  Level Estimated
Thu 10:46:00 AM 30.0779 112.8845 16° North  Level Estimated
Thu 10:47:00 AM 30.1764 112.9168 16° North  Level Estimated
Thu 10:48:00 AM 30.2750 112.9491 16° North  Level Estimated
Thu 10:49:00 AM 30.3735 112.9815 16° North  Level Estimated
Thu 10:50:00 AM 30.4721 113.0140 16° North  Level Estimated
Thu 10:51:00 AM 30.5706 113.0465 16° North  Level Estimated
Thu 10:52:00 AM 30.6692 113.0791 16° North  Level Estimated
Thu 10:53:00 AM 30.7677 113.1118 16° North  Level Estimated
Thu 10:54:00 AM 30.8662 113.1445 16° North  Level Estimated
Thu 10:55:00 AM 30.9647 113.1773 16° North  Level Estimated
Thu 10:56:00 AM 31.0632 113.2102 16° North  Level Estimated
Thu 10:57:00 AM 31.1617 113.2431 16° North  Level Estimated
Thu 10:58:00 AM 31.2602 113.2761 16° North  Level Estimated
Thu 10:59:00 AM 31.3587 113.3092 16° North  Level Estimated
Thu 11:00:00 AM 31.4571 113.3423 16° North  Level Estimated
Thu 11:01:00 AM 31.5556 113.3755 16° North  Level Estimated
Thu 11:02:00 AM 31.6540 113.4088 16° North  Level Estimated
Thu 11:03:00 AM 31.7525 113.4421 16° North  Level Estimated
Thu 11:04:00 AM 31.8509 113.4756 16° North  Level Estimated
Thu 11:05:00 AM 31.9493 113.5090 16° North  Level Estimated
Thu 11:06:00 AM 32.0477 113.5426 16° North  Level Estimated
Thu 11:07:00 AM 32.1461 113.5762 16° North  Level Estimated
Thu 11:08:00 AM 32.2445 113.6100 16° North  Level Estimated
Thu 11:09:00 AM 32.3429 113.6437 16° North  Level Estimated
Thu 11:10:00 AM 32.4413 113.6776 16° North  Level Estimated
Thu 11:11:00 AM 32.5397 113.7115 16° North  Level Estimated
Thu 11:12:00 AM 32.6380 113.7455 16° North  Level Estimated
Thu 11:13:00 AM 32.7364 113.7796 16° North  Level Estimated
Thu 11:14:00 AM 32.8347 113.8138 16° North  Level Estimated
Thu 11:15:00 AM 32.9330 113.8480 16° North  Level Estimated
Thu 11:16:00 AM 33.0314 113.8823 16° North  Level Estimated
Thu 11:17:00 AM 33.1297 113.9167 16° North  Level Estimated
Thu 11:18:00 AM 33.2280 113.9511 16° North  Level Estimated
Thu 11:19:00 AM 33.3263 113.9857 16° North  Level Estimated
Thu 11:20:00 AM 33.4246 114.0203 16° North  Level Estimated
Thu 11:21:00 AM 33.5228 114.0550 16° North  Level Estimated
Thu 11:22:00 AM 33.6211 114.0898 16° North  Level Estimated
Thu 11:23:00 AM 33.7193 114.1246 16° North  Level Estimated
Thu 11:24:00 AM 33.8176 114.1595 16° North  Level Estimated
Thu 11:25:00 AM 33.9158 114.1945 16° North  Level Estimated
Thu 11:26:00 AM 34.0141 114.2296 16° North  Level Estimated
Thu 11:27:00 AM 34.1123 114.2648 17° North  Level Estimated
Thu 11:28:00 AM 34.2105 114.3001 17° North  Level Estimated
Thu 11:29:00 AM 34.3087 114.3354 17° North  Level Estimated
Thu 11:30:00 AM 34.4069 114.3708 17° North  Level Estimated
Thu 11:31:00 AM 34.5050 114.4063 17° North  Level Estimated
Thu 11:32:00 AM 34.6032 114.4419 17° North  Level Estimated
Thu 11:33:00 AM 34.7014 114.4776 17° North  Level Estimated
Thu 11:34:00 AM 34.7995 114.5134 17° North  Level Estimated
Thu 11:35:00 AM 34.8976 114.5492 17° North  Level Estimated
Thu 11:36:00 AM 34.9958 114.5851 17° North  Level Estimated
Thu 11:37:00 AM 35.0939 114.6211 17° North  Level Estimated
Thu 11:38:00 AM 35.1920 114.6572 17° North  Level Estimated
Thu 11:39:00 AM 35.2901 114.6934 17° North  Level Estimated
Thu 11:40:00 AM 35.3881 114.7297 17° North  Level Estimated
Thu 11:41:00 AM 35.4862 114.7661 17° North  Level Estimated
Thu 11:42:00 AM 35.5843 114.8025 17° North  Level Estimated
Thu 11:43:00 AM 35.6823 114.8391 17° North  Level Estimated
Thu 11:44:00 AM 35.7803 114.8757 17° North  Level Estimated
Thu 11:45:00 AM 35.8784 114.9124 17° North  Level Estimated
Thu 11:46:00 AM 35.9764 114.9492 17° North  Level Estimated
Thu 11:47:00 AM 36.0744 114.9861 17° North  Level Estimated
Thu 11:48:00 AM 36.1724 115.0231 17° North  Level Estimated
Thu 11:49:00 AM 36.2704 115.0602 17° North  Level Estimated
Thu 11:50:00 AM 36.3683 115.0974 17° North  Level Estimated
Thu 11:51:00 AM 36.4663 115.1347 17° North  Level Estimated
Thu 11:52:00 AM 36.5642 115.1721 17° North  Level Estimated
Thu 11:53:00 AM 36.6622 115.2095 17° North  Level Estimated
Thu 11:54:00 AM 36.7601 115.2471 17° North  Level Estimated
Thu 11:55:00 AM 36.8580 115.2847 17° North  Level Estimated
Thu 11:56:00 AM 36.9559 115.3225 17° North  Level Estimated
Thu 11:57:00 AM 37.0538 115.3603 17° North  Level Estimated
Thu 11:58:00 AM 37.1516 115.3983 17° North  Level Estimated
Thu 11:59:00 AM 37.2495 115.4363 17° North  Level Estimated
Thu 12:00:00 PM 37.3474 115.4745 17° North  Level Estimated
Thu 12:01:00 PM 37.4452 115.5127 17° North  Level Estimated
Thu 12:02:00 PM 37.5430 115.5511 17° North  Level Estimated
Thu 12:03:00 PM 37.6408 115.5895 17° North  Level Estimated
Thu 12:04:00 PM 37.7386 115.6281 17° North  Level Estimated
Thu 12:05:00 PM 37.8364 115.6667 17° North  Level Estimated
Thu 12:06:00 PM 37.9342 115.7055 17° North  Level Estimated
Thu 12:07:00 PM 38.0320 115.7443 17° North  Level Estimated
Thu 12:08:00 PM 38.1297 115.7833 17° North  Level Estimated
Thu 12:09:00 PM 38.2274 115.8223 17° North  Level Estimated
Thu 12:10:00 PM 38.3252 115.8615 17° North  Level Estimated
Thu 12:11:00 PM 38.4229 115.9008 17° North  Level Estimated
Thu 12:12:00 PM 38.5206 115.9402 18° North  Level Estimated
Thu 12:13:00 PM 38.6183 115.9797 18° North  Level Estimated
Thu 12:14:00 PM 38.7159 116.0193 18° North  Level Estimated
Thu 12:15:00 PM 38.8136 116.0590 18° North  Level Estimated
Thu 12:16:00 PM 38.9112 116.0988 18° North  Level Estimated
Thu 12:17:00 PM 39.0089 116.1387 18° North  Level Estimated
Thu 12:18:00 PM 39.1065 116.1787 18° North  Level Estimated
Thu 12:19:00 PM 39.2041 116.2189 18° North  Level Estimated
Thu 12:20:00 PM 39.3017 116.2591 18° North  Level Estimated
Thu 12:21:00 PM 39.3992 116.2995 18° North  Level Estimated
Thu 12:22:00 PM 39.4968 116.3400 18° North  Level Estimated
Thu 12:23:00 PM 39.5943 116.3806 18° North  Level Estimated
Thu 12:24:00 PM 39.6919 116.4213 18° North  Level Estimated
Thu 12:25:00 PM 39.7894 116.4621 18° North  Level Estimated
Thu 12:26:00 PM 39.8869 116.5031 18° North  Level Estimated
Thu 12:27:00 PM 39.9844 116.5441 18° North  Level Estimated
Thu 12:28:00 PM 40.0801 116.5846 18° North  Level Estimated
Thu 12:29:00 PM 40.0801 116.5846 North  Level Estimated
Thu 12:30:00 PM 40.0801 116.5846 North  Level Estimated
Thu 12:31:00 PM 40.0801 116.5846 North  Level Estimated
Thu 12:32:00 PM 40.0801 116.5846 North  Level Estimated
Thu 12:33:00 PM 40.0801 116.5846 North  Level Estimated
Thu 12:34:00 PM 40.0801 116.5846 North  Level Estimated
Thu 12:35:00 PM 40.0801 116.5846 North  Level Estimated
Thu 12:36:00 PM 40.0801 116.5846 North  Level Estimated
Thu 12:37:00 PM 40.0801 116.5846 North  Level Estimated
Thu 12:38:00 PM 40.0801 116.5846 North  Level Estimated
Thu 12:39:00 PM 40.0801 116.5846 North  Level Estimated
Thu 12:40:00 PM 40.0801 116.5846 North  Level Estimated
Thu 12:41:00 PM 40.0801 116.5846 North  Level Estimated
Thu 12:42:00 PM 40.0801 116.5846 North  Level Estimated
Thu 12:43:00 PM 40.0801 116.5846 North  Level Estimated
Thu 12:44:00 PM 40.0801 116.5846 North  Level Estimated

Login

Don't have an account? Register now (free) for customized features, flight alerts, and more!